createdAt,value
2019-03-01T00:01:04.200Z,0.80
2019-03-01T00:03:34.467Z,9.38
2019-03-01T00:06:20.287Z,11.78
2019-03-01T00:09:14.287Z,15.47
2019-03-01T00:11:56.259Z,8.93
2019-03-01T00:14:55.883Z,10.43
2019-03-01T00:17:42.485Z,18.33
2019-03-01T00:20:23.555Z,11.45
2019-03-01T00:23:17.212Z,8.30
2019-03-01T00:26:14.343Z,10.33
2019-03-01T00:28:47.193Z,9.20
2019-03-01T00:31:44.247Z,8.70
2019-03-01T00:34:37.801Z,15.40
2019-03-01T00:37:26.023Z,9.13
2019-03-01T00:40:19.619Z,10.97
2019-03-01T00:43:13.435Z,10.00
2019-03-01T00:45:42.123Z,7.83
2019-03-01T00:48:11.497Z,9.10
2019-03-01T00:50:40.143Z,8.50
2019-03-01T00:53:08.791Z,8.43
2019-03-01T00:55:37.408Z,7.17
2019-03-01T00:58:06.099Z,9.48
2019-03-01T01:00:37.103Z,9.17
2019-03-01T01:03:05.743Z,8.47
2019-03-01T01:05:34.367Z,10.33
2019-03-01T01:08:03.119Z,6.22
2019-03-01T01:10:31.740Z,6.62
2019-03-01T01:13:00.395Z,8.90
2019-03-01T01:15:29.024Z,8.33
2019-03-01T01:17:57.634Z,6.53
2019-03-01T01:20:26.389Z,8.45
2019-03-01T01:22:55.008Z,5.73
2019-03-01T01:25:23.659Z,10.60
2019-03-01T01:27:52.279Z,9.00
2019-03-01T01:30:20.907Z,3.80
2019-03-01T01:32:49.630Z,11.80
2019-03-01T01:35:18.458Z,12.27
2019-03-01T01:37:47.123Z,12.10
2019-03-01T01:40:15.747Z,8.63
2019-03-01T01:42:44.443Z,11.40
2019-03-01T01:45:13.192Z,11.33
2019-03-01T01:47:42.243Z,8.23
2019-03-01T01:50:10.899Z,11.07
2019-03-01T01:52:39.527Z,4.72
2019-03-01T01:55:08.583Z,8.13
2019-03-01T01:57:37.327Z,12.98
2019-03-01T02:00:06.283Z,11.03
2019-03-01T02:02:35.520Z,9.93
2019-03-01T02:05:04.407Z,12.70
2019-03-01T02:07:33.095Z,9.47
2019-03-01T02:10:01.723Z,13.20
2019-03-01T02:12:30.379Z,17.27
2019-03-01T02:14:59.727Z,21.80
2019-03-01T02:17:28.423Z,20.47
2019-03-01T02:22:38.856Z,21.70
2019-03-01T02:25:08.675Z,31.37
2019-03-01T02:27:37.316Z,20.67
2019-03-01T02:30:08.879Z,30.70
2019-03-01T02:32:39.065Z,33.73
2019-03-01T02:35:08.692Z,36.53
2019-03-01T02:37:37.743Z,34.83
2019-03-01T02:40:07.368Z,44.30
2019-03-01T02:42:36.025Z,27.45
2019-03-01T02:45:05.304Z,44.83
2019-03-01T02:47:33.946Z,41.37
2019-03-01T02:50:02.684Z,41.45
2019-03-01T02:52:32.280Z,45.53
2019-03-01T02:55:00.935Z,47.30
2019-03-01T02:57:30.254Z,40.78
2019-03-01T02:59:59.034Z,53.83
2019-03-01T03:02:27.763Z,71.03
2019-03-01T03:04:56.376Z,53.30
2019-03-01T03:07:44.173Z,55.17
2019-03-01T03:10:13.376Z,51.90
2019-03-01T03:12:41.999Z,54.67
2019-03-01T03:15:10.643Z,55.63
2019-03-01T03:17:39.344Z,54.97
2019-03-01T03:20:08.393Z,53.23
2019-03-01T03:22:37.020Z,53.83
2019-03-01T03:25:05.786Z,60.83
2019-03-01T03:27:34.410Z,61.90
2019-03-01T03:30:03.216Z,79.22
2019-03-01T03:32:32.129Z,79.27
2019-03-01T03:35:00.869Z,89.28
2019-03-01T03:37:29.492Z,89.00
2019-03-01T03:39:58.150Z,98.63
2019-03-01T03:42:27.566Z,85.80
2019-03-01T03:44:56.280Z,99.87
2019-03-01T03:47:25.075Z,94.83
2019-03-01T03:49:53.714Z,83.63
2019-03-01T03:52:22.349Z,96.13
2019-03-01T03:54:51.015Z,96.08
2019-03-01T03:57:19.914Z,94.70
2019-03-01T03:59:49.527Z,91.60
2019-03-01T04:02:18.176Z,81.85
2019-03-01T04:04:46.797Z,87.23
2019-03-01T04:07:15.424Z,70.35
2019-03-01T04:09:44.132Z,68.60
2019-03-01T04:12:13.732Z,47.05
2019-03-01T04:14:42.361Z,66.50
2019-03-01T04:17:11.071Z,51.60
2019-03-01T04:19:39.700Z,58.03
2019-03-01T04:22:08.517Z,54.88
2019-03-01T04:24:37.151Z,57.73
2019-03-01T04:27:05.848Z,45.50
2019-03-01T04:29:34.558Z,56.53
2019-03-01T04:32:03.207Z,58.97
2019-03-01T04:34:31.913Z,46.00
2019-03-01T04:37:01.216Z,52.88
2019-03-01T04:39:29.947Z,55.50
2019-03-01T04:41:58.587Z,47.08
2019-03-01T04:44:27.215Z,49.60
2019-03-01T04:46:56.471Z,50.33
2019-03-01T04:49:25.187Z,48.97
2019-03-01T04:51:53.888Z,52.33
2019-03-01T04:54:22.523Z,51.80
2019-03-01T04:56:51.180Z,51.10
2019-03-01T04:59:19.944Z,48.53
2019-03-01T05:01:48.603Z,22.47
2019-03-01T05:04:17.407Z,50.57
2019-03-01T05:06:46.300Z,55.12
2019-03-01T05:09:14.992Z,39.53
2019-03-01T05:11:43.904Z,30.80
2019-03-01T05:14:12.663Z,50.63
2019-03-01T05:16:41.283Z,54.75
2019-03-01T05:19:09.915Z,45.27
2019-03-01T05:21:38.572Z,39.90
2019-03-01T05:24:07.197Z,41.97
2019-03-01T05:26:36.375Z,57.43
2019-03-01T05:29:05.003Z,32.42
2019-03-01T05:31:33.635Z,47.13
2019-03-01T05:34:02.313Z,58.30
2019-03-01T05:36:31.007Z,57.37
2019-03-01T05:38:59.607Z,56.93
2019-03-01T05:41:28.311Z,49.50
2019-03-01T05:43:56.955Z,53.48
2019-03-01T05:46:25.607Z,51.53
2019-03-01T05:48:54.243Z,48.60
2019-03-01T05:51:22.894Z,52.63
2019-03-01T05:53:51.523Z,58.00
2019-03-01T05:56:20.323Z,57.27
2019-03-01T05:59:02.539Z,50.53
2019-03-01T06:01:33.019Z,44.60
2019-03-01T06:04:03.203Z,57.43
2019-03-01T06:06:37.129Z,48.87
2019-03-01T06:09:15.619Z,47.50
2019-03-01T06:11:51.080Z,28.47
2019-03-01T06:14:31.503Z,51.77
2019-03-01T06:17:16.138Z,37.20
2019-03-01T06:19:48.244Z,21.70
2019-03-01T06:22:45.515Z,60.10
2019-03-01T06:25:39.448Z,62.88
2019-03-01T06:28:11.903Z,15.87
2019-03-01T06:30:51.611Z,13.00
2019-03-01T06:33:35.508Z,14.80
2019-03-01T06:36:10.287Z,16.20
2019-03-01T06:39:14.608Z,17.93
2019-03-01T06:42:10.781Z,17.60
2019-03-01T06:44:47.176Z,20.83
2019-03-01T06:47:21.813Z,21.57
2019-03-01T06:50:01.255Z,24.93
2019-03-01T06:52:30.710Z,23.02
2019-03-01T06:54:59.384Z,22.20
2019-03-01T06:57:28.382Z,19.15
2019-03-01T06:59:57.688Z,27.55
2019-03-01T07:02:33.576Z,23.13
2019-03-01T07:05:02.568Z,72.67
2019-03-01T07:07:31.683Z,70.17
2019-03-01T07:10:00.526Z,65.28
2019-03-01T07:12:29.520Z,59.53
2019-03-01T07:14:58.571Z,61.33
2019-03-01T07:17:27.699Z,53.33
2019-03-01T07:19:56.609Z,58.52
2019-03-01T07:22:25.470Z,46.73
2019-03-01T07:24:54.525Z,49.38
2019-03-01T07:27:23.435Z,48.92
2019-03-01T07:29:53.123Z,47.65
2019-03-01T07:32:22.067Z,51.55
2019-03-01T07:34:50.999Z,46.05
2019-03-01T07:37:21.883Z,45.83
2019-03-01T07:39:50.680Z,40.70
2019-03-01T07:42:20.707Z,46.37
2019-03-01T07:44:49.610Z,45.05
2019-03-01T07:47:18.860Z,44.65
2019-03-01T07:49:47.741Z,45.88
2019-03-01T07:52:16.921Z,42.43
2019-03-01T07:54:45.926Z,43.90
2019-03-01T07:57:15.645Z,45.90
2019-03-01T07:59:45.320Z,40.67
2019-03-01T08:02:14.015Z,39.03
2019-03-01T08:04:42.656Z,38.17
2019-03-01T08:07:11.387Z,41.27
2019-03-01T08:09:41.271Z,30.37
2019-03-01T08:12:10.301Z,30.62
2019-03-01T08:14:39.173Z,28.60
2019-03-01T08:17:07.795Z,31.27
2019-03-01T08:19:36.448Z,26.67
2019-03-01T08:22:05.092Z,25.17
2019-03-01T08:24:33.787Z,28.45
2019-03-01T08:27:05.683Z,15.67
2019-03-01T08:29:34.054Z,14.77
2019-03-01T08:32:02.924Z,20.27
2019-03-01T08:34:32.138Z,14.25
2019-03-01T08:37:00.758Z,18.50
2019-03-01T08:39:29.392Z,25.05
2019-03-01T08:42:01.263Z,21.13
2019-03-01T08:44:28.296Z,18.65
2019-03-01T08:46:56.923Z,24.23
2019-03-01T08:49:25.625Z,21.97
2019-03-01T08:51:54.251Z,26.30
2019-03-01T08:54:26.313Z,28.45
2019-03-01T08:56:53.209Z,28.73
2019-03-01T08:59:21.846Z,26.33
2019-03-01T09:01:50.583Z,23.50
2019-03-01T09:04:21.397Z,26.80
2019-03-01T09:06:49.636Z,20.27
2019-03-01T09:09:20.937Z,23.90
2019-03-01T09:11:48.536Z,23.83
2019-03-01T09:14:17.188Z,25.37
2019-03-01T09:16:45.904Z,22.33
2019-03-01T09:19:14.536Z,20.53
2019-03-01T09:21:44.761Z,22.50
2019-03-01T09:24:14.058Z,21.68
2019-03-01T09:26:42.731Z,16.80
2019-03-01T09:29:13.044Z,18.70
2019-03-01T09:31:41.601Z,12.57
2019-03-01T09:34:10.231Z,19.32
2019-03-01T09:36:42.514Z,18.40
2019-03-01T09:39:11.155Z,16.13
2019-03-01T09:41:40.537Z,22.07
2019-03-01T09:44:10.237Z,14.07
2019-03-01T09:46:38.856Z,15.57
2019-03-01T09:49:07.472Z,17.33
2019-03-01T09:51:36.115Z,22.53
2019-03-01T09:54:06.505Z,16.43
2019-03-01T09:56:35.020Z,19.20
2019-03-01T09:59:04.724Z,17.27
2019-03-01T10:01:33.393Z,18.40
2019-03-01T10:04:02.027Z,19.73
2019-03-01T10:06:37.786Z,20.73
2019-03-01T10:09:01.095Z,18.10
2019-03-01T10:11:31.396Z,19.40
2019-03-01T10:14:00.056Z,19.80
2019-03-01T10:16:28.673Z,28.60
2019-03-01T10:18:57.291Z,23.12
2019-03-01T10:21:26.333Z,31.20
2019-03-01T10:23:54.969Z,31.37
2019-03-01T10:26:23.687Z,29.13
2019-03-01T10:28:52.564Z,28.97
2019-03-01T10:31:21.204Z,32.67
2019-03-01T10:33:49.892Z,30.87
2019-03-01T10:36:20.487Z,30.92
2019-03-01T10:38:49.145Z,27.03
2019-03-01T10:41:18.240Z,20.40
2019-03-01T10:43:47.034Z,25.32
2019-03-01T10:46:15.648Z,17.93
2019-03-01T10:48:44.273Z,22.40
2019-03-01T10:51:12.988Z,26.17
2019-03-01T10:53:41.616Z,20.32
2019-03-01T10:56:10.358Z,24.40
2019-03-01T10:58:38.991Z,19.07
2019-03-01T11:01:07.817Z,17.57
2019-03-01T11:03:36.458Z,15.97
2019-03-01T11:06:05.084Z,26.05
2019-03-01T11:08:33.743Z,19.32
2019-03-01T11:11:02.426Z,15.78
2019-03-01T11:13:31.028Z,19.87
2019-03-01T11:15:59.687Z,19.47
2019-03-01T11:18:28.319Z,21.15
2019-03-01T11:20:56.959Z,22.97
2019-03-01T11:23:25.620Z,21.95
2019-03-01T11:25:54.247Z,18.03
2019-03-01T11:28:22.879Z,20.10
2019-03-01T11:30:51.590Z,20.43
2019-03-01T11:33:20.282Z,13.65
2019-03-01T11:35:50.005Z,22.20
2019-03-01T11:38:18.647Z,18.37
2019-03-01T11:40:47.271Z,23.40
2019-03-01T11:43:15.896Z,21.77
2019-03-01T11:45:44.619Z,15.72
2019-03-01T11:48:13.244Z,19.67
2019-03-01T11:50:42.036Z,21.75
2019-03-01T11:53:10.795Z,21.07
2019-03-01T11:55:39.423Z,21.47
2019-03-01T11:58:08.111Z,16.93
2019-03-01T12:00:36.759Z,18.77
2019-03-01T12:03:05.428Z,18.45
2019-03-01T12:05:34.075Z,14.60
2019-03-01T12:08:02.705Z,16.47
2019-03-01T12:10:31.424Z,23.50
2019-03-01T12:13:00.327Z,14.43
2019-03-01T12:15:29.035Z,14.37
2019-03-01T12:17:57.764Z,15.50
2019-03-01T12:20:26.596Z,14.75
2019-03-01T12:22:55.215Z,21.83
2019-03-01T12:25:23.860Z,14.20
2019-03-01T12:27:52.488Z,18.73
2019-03-01T12:30:21.759Z,16.02
2019-03-01T12:32:50.484Z,18.80
2019-03-01T12:35:20.155Z,14.67
2019-03-01T12:37:48.985Z,13.47
2019-03-01T12:40:21.843Z,17.75
2019-03-01T12:42:50.464Z,15.50
2019-03-01T12:45:19.151Z,16.23
2019-03-01T12:47:47.791Z,18.77
2019-03-01T12:50:16.762Z,16.47
2019-03-01T12:52:45.458Z,14.27
2019-03-01T12:55:15.366Z,18.77
2019-03-01T12:57:44.027Z,19.90
2019-03-01T13:00:14.065Z,14.58
2019-03-01T13:02:42.698Z,20.87
2019-03-01T13:05:11.555Z,13.70
2019-03-01T13:07:40.259Z,15.32
2019-03-01T13:10:10.671Z,13.30
2019-03-01T13:12:39.441Z,16.50
2019-03-01T13:15:10.674Z,8.00
2019-03-01T13:17:39.872Z,12.43
2019-03-01T13:20:10.143Z,12.18
2019-03-01T13:22:38.837Z,12.57
2019-03-01T13:25:07.495Z,8.23
2019-03-01T13:27:36.135Z,8.10
2019-03-01T13:30:04.988Z,11.25
2019-03-01T13:32:33.699Z,6.83
2019-03-01T13:35:02.434Z,9.70
2019-03-01T13:37:31.287Z,5.97
2019-03-01T13:39:59.915Z,11.48
2019-03-01T13:42:28.550Z,11.53
2019-03-01T13:44:57.188Z,9.67
2019-03-01T13:47:25.803Z,8.50
2019-03-01T13:49:54.423Z,8.70
2019-03-01T13:52:23.143Z,7.90
2019-03-01T13:54:52.383Z,6.50
2019-03-01T13:57:21.299Z,4.42
2019-03-01T13:59:49.944Z,9.73
2019-03-01T14:02:18.568Z,5.40
2019-03-01T14:04:48.147Z,7.77
2019-03-01T14:07:16.979Z,9.83
2019-03-01T14:09:45.601Z,6.23
2019-03-01T14:12:14.214Z,4.80
2019-03-01T14:14:43.051Z,4.90
2019-03-01T14:17:11.664Z,6.53
2019-03-01T14:19:42.309Z,8.35
2019-03-01T14:22:13.827Z,3.80
2019-03-01T14:24:40.916Z,6.43
2019-03-01T14:27:09.533Z,5.50
2019-03-01T14:29:38.344Z,3.45
2019-03-01T14:32:07.019Z,3.42
2019-03-01T14:34:35.671Z,6.70
2019-03-01T14:37:05.959Z,3.95
2019-03-01T14:39:34.571Z,3.90
2019-03-01T14:42:03.195Z,3.42
2019-03-01T14:44:33.873Z,3.58
2019-03-01T14:47:02.535Z,6.77
2019-03-01T14:49:31.152Z,3.13
2019-03-01T14:51:59.775Z,6.03
2019-03-01T14:54:28.411Z,4.95
2019-03-01T14:57:06.868Z,3.15
2019-03-01T14:59:38.405Z,6.20
2019-03-01T15:02:25.402Z,5.13
2019-03-01T15:04:54.415Z,3.60
2019-03-01T15:07:23.306Z,7.83
2019-03-01T15:09:53.247Z,5.03
2019-03-01T15:12:22.952Z,3.87
2019-03-01T15:14:52.167Z,7.90
2019-03-01T15:17:22.680Z,3.87
2019-03-01T15:19:52.415Z,5.30
2019-03-01T15:22:21.028Z,6.05
2019-03-01T15:24:49.701Z,6.13
2019-03-01T15:27:18.337Z,3.27
2019-03-01T15:29:46.951Z,4.70
2019-03-01T15:32:15.571Z,2.27
2019-03-01T15:34:44.191Z,1.80
2019-03-01T15:37:12.808Z,3.33
2019-03-01T15:39:41.465Z,6.00
2019-03-01T15:42:10.123Z,4.97
2019-03-01T15:44:38.713Z,5.50
2019-03-01T15:47:07.360Z,5.40
2019-03-01T15:49:36.039Z,2.80
2019-03-01T15:52:04.656Z,4.35
2019-03-01T15:54:35.923Z,4.63
2019-03-01T15:57:03.753Z,2.75
2019-03-01T15:59:32.440Z,5.80
2019-03-01T16:02:01.076Z,4.83
2019-03-01T16:04:30.411Z,3.00
2019-03-01T16:07:00.572Z,2.67
2019-03-01T16:09:29.204Z,2.63
2019-03-01T16:11:57.908Z,3.40
2019-03-01T16:14:26.540Z,1.53
2019-03-01T16:16:55.255Z,4.45
2019-03-01T16:19:23.903Z,2.37
2019-03-01T16:21:52.500Z,3.63
2019-03-01T16:24:22.231Z,3.27
2019-03-01T16:26:50.851Z,1.90
2019-03-01T16:29:19.464Z,4.58
2019-03-01T16:31:48.142Z,6.77
2019-03-01T16:34:17.830Z,5.62
2019-03-01T16:36:51.994Z,4.00
2019-03-01T16:39:23.762Z,2.90
2019-03-01T16:41:51.935Z,2.90
2019-03-01T16:44:20.699Z,4.53
2019-03-01T16:46:49.311Z,3.58
2019-03-01T16:49:17.949Z,3.50
2019-03-01T16:51:47.208Z,3.58
2019-03-01T16:54:16.544Z,3.83
2019-03-01T16:56:45.245Z,4.78
2019-03-01T16:59:13.880Z,4.43
2019-03-01T17:01:42.572Z,3.45
2019-03-01T17:04:11.193Z,1.93
2019-03-01T17:06:39.891Z,3.07
2019-03-01T17:09:11.812Z,4.08
2019-03-01T17:11:41.549Z,5.20
2019-03-01T17:14:09.932Z,3.72
2019-03-01T17:16:38.539Z,3.50
2019-03-01T17:19:07.185Z,4.97
2019-03-01T17:21:35.883Z,7.58
2019-03-01T17:24:04.500Z,4.03
2019-03-01T17:26:33.128Z,4.30
2019-03-01T17:29:03.198Z,4.80
2019-03-01T17:31:32.080Z,7.20
2019-03-01T17:34:00.709Z,5.35
2019-03-01T17:36:29.316Z,5.50
2019-03-01T17:38:57.964Z,6.73
2019-03-01T17:41:26.592Z,6.47
2019-03-01T17:43:55.915Z,6.97
2019-03-01T17:46:25.419Z,4.37
2019-03-01T17:48:57.066Z,5.83
2019-03-01T17:51:24.439Z,5.33
2019-03-01T17:53:53.134Z,7.35
2019-03-01T17:56:22.633Z,6.50
2019-03-01T17:58:51.367Z,6.90
2019-03-01T18:01:20.059Z,4.80
2019-03-01T18:03:48.674Z,7.22
2019-03-01T18:06:17.990Z,4.90
2019-03-01T18:08:47.282Z,5.12
2019-03-01T18:11:15.894Z,5.90
2019-03-01T18:13:44.526Z,7.43
2019-03-01T18:16:13.154Z,6.53
2019-03-01T18:18:42.575Z,4.23
2019-03-01T18:21:13.104Z,9.10
2019-03-01T18:23:41.589Z,5.60
2019-03-01T18:26:10.223Z,6.97
2019-03-01T18:28:38.953Z,6.40
2019-03-01T18:31:07.633Z,8.15
2019-03-01T18:33:36.254Z,5.78
2019-03-01T18:36:04.884Z,5.57
2019-03-01T18:38:33.515Z,9.30
2019-03-01T18:41:02.145Z,9.33
2019-03-01T18:43:30.764Z,7.37
2019-03-01T18:45:59.371Z,11.10
2019-03-01T18:48:28.024Z,8.47
2019-03-01T18:50:56.632Z,7.77
2019-03-01T18:53:28.871Z,6.62
2019-03-01T18:55:55.496Z,6.60
2019-03-01T18:58:24.135Z,6.80
2019-03-01T19:00:53.999Z,6.80
2019-03-01T19:03:22.681Z,4.27
2019-03-01T19:05:51.600Z,6.53
2019-03-01T19:08:20.351Z,6.00
2019-03-01T19:10:54.146Z,9.57
2019-03-01T19:13:20.731Z,6.87
2019-03-01T19:15:54.461Z,9.77
2019-03-01T19:18:19.692Z,10.57
2019-03-01T19:20:48.415Z,7.97
2019-03-01T19:23:17.039Z,6.72
2019-03-01T19:25:45.656Z,8.30
2019-03-01T19:28:14.279Z,9.07
2019-03-01T19:30:45.891Z,6.22
2019-03-01T19:33:14.639Z,9.18
2019-03-01T19:35:43.258Z,9.17
2019-03-01T19:38:11.868Z,10.07
2019-03-01T19:40:43.514Z,7.23
2019-03-01T19:43:11.149Z,6.08
2019-03-01T19:45:40.815Z,7.43
2019-03-01T19:48:10.131Z,5.87
2019-03-01T19:50:38.755Z,8.95
2019-03-01T19:53:07.555Z,7.80
2019-03-01T19:55:36.206Z,9.07
2019-03-01T19:58:04.844Z,9.05
2019-03-01T20:00:33.509Z,6.03
2019-03-01T20:03:02.201Z,7.92
2019-03-01T20:05:31.648Z,8.58
2019-03-01T20:08:01.194Z,8.10
2019-03-01T20:10:29.832Z,10.10
2019-03-01T20:12:58.522Z,6.77
2019-03-01T20:15:27.303Z,8.00
2019-03-01T20:17:55.972Z,7.57
2019-03-01T20:20:24.606Z,8.38
2019-03-01T20:22:54.184Z,8.23
2019-03-01T20:25:23.825Z,9.25
2019-03-01T20:27:52.525Z,11.50
2019-03-01T20:30:28.804Z,9.17
2019-03-01T20:32:52.289Z,12.47
2019-03-01T20:35:20.971Z,8.88
2019-03-01T20:37:49.595Z,8.47
2019-03-01T20:40:18.427Z,11.63
2019-03-01T20:42:47.094Z,13.10
2019-03-01T20:45:17.103Z,8.45
2019-03-01T20:47:45.711Z,11.40
2019-03-01T20:50:15.679Z,9.73
2019-03-01T20:52:44.702Z,10.28
2019-03-01T20:55:13.393Z,8.80
2019-03-01T20:57:42.123Z,15.38
2019-03-01T21:00:11.967Z,11.20
2019-03-01T21:02:41.255Z,12.75
2019-03-01T21:05:11.139Z,10.87
2019-03-01T21:07:39.872Z,11.30
2019-03-01T21:10:12.580Z,11.25
2019-03-01T21:12:41.592Z,13.05
2019-03-01T21:15:11.503Z,9.45
2019-03-01T21:17:40.151Z,11.73
2019-03-01T21:20:09.178Z,12.70
2019-03-01T21:22:39.744Z,16.93
2019-03-01T21:25:08.840Z,15.20
2019-03-01T21:27:37.475Z,16.10
2019-03-01T21:30:07.716Z,13.78
2019-03-01T21:32:37.104Z,12.55
2019-03-01T21:35:06.225Z,11.28
2019-03-01T21:37:38.273Z,18.07
2019-03-01T21:40:06.231Z,15.68
2019-03-01T21:42:34.939Z,18.47
2019-03-01T21:45:03.908Z,15.57
2019-03-01T21:47:32.699Z,16.50
2019-03-01T21:50:03.943Z,20.68
2019-03-01T21:52:31.641Z,19.73
2019-03-01T21:55:00.280Z,20.40
2019-03-01T21:57:31.156Z,20.97
2019-03-01T21:59:59.218Z,16.75
2019-03-01T22:02:27.861Z,17.98
2019-03-01T22:04:56.500Z,20.80
2019-03-01T22:07:25.147Z,19.27
2019-03-01T22:09:56.815Z,24.23
2019-03-01T22:12:24.614Z,18.07
2019-03-01T22:14:54.264Z,21.23
2019-03-01T22:17:22.904Z,23.25
2019-03-01T22:19:52.326Z,22.27
2019-03-01T22:22:21.084Z,23.73
2019-03-01T22:24:50.299Z,22.07
2019-03-01T22:27:21.525Z,21.17
2019-03-01T22:29:50.545Z,22.93
2019-03-01T22:32:19.194Z,20.72
2019-03-01T22:34:47.814Z,27.87
2019-03-01T22:37:16.440Z,19.85
2019-03-01T22:39:45.092Z,23.73
2019-03-01T22:42:14.309Z,20.85
2019-03-01T22:44:43.830Z,20.80
2019-03-01T22:47:12.491Z,23.93
2019-03-01T22:49:41.768Z,28.98
2019-03-01T22:52:10.423Z,23.30
2019-03-01T22:54:39.052Z,23.60
2019-03-01T22:57:07.691Z,20.55
2019-03-01T22:59:36.407Z,18.10
2019-03-01T23:02:08.095Z,23.90
2019-03-01T23:04:37.159Z,22.00
2019-03-01T23:07:05.779Z,24.37
2019-03-01T23:09:34.401Z,21.87
2019-03-01T23:12:04.754Z,24.10
2019-03-01T23:14:33.581Z,20.30
2019-03-01T23:17:02.219Z,23.27
2019-03-01T23:19:30.868Z,20.92
2019-03-01T23:21:59.862Z,23.77
2019-03-01T23:24:31.711Z,21.37
2019-03-01T23:26:58.770Z,22.83
2019-03-01T23:29:27.479Z,22.82
2019-03-01T23:31:56.251Z,21.77
2019-03-01T23:34:25.051Z,21.55
2019-03-01T23:36:53.668Z,23.85
2019-03-01T23:39:24.604Z,23.00
2019-03-01T23:41:52.567Z,21.30
2019-03-01T23:44:21.191Z,26.47
2019-03-01T23:46:49.899Z,21.15
2019-03-01T23:49:20.634Z,20.30
2019-03-01T23:51:48.805Z,25.60
2019-03-01T23:54:17.439Z,23.02
2019-03-01T23:56:46.103Z,22.22
2019-03-01T23:59:14.733Z,28.62
